Time;durP1;ratioP1;P1;durP2;ratioP2;P2;SDS_P1;SDS_P2;PMS_P1;PMS_P2;Temp;Humidity;BMP_temperature;BMP_pressure;BME280_temperature;BME280_humidity;BME280_pressure;Samples;Min_cycle;Max_cycle;Signal;HPM_P1;HPM_P2
2022/04/27 00:00:33;;;;;;;5.90;2.60;;;;;;;19.26;57.90;100692.09;5051902;28;20802;-65
2022/04/27 00:02:59;;;;;;;6.17;2.90;;;;;;;19.26;57.87;100685.53;5070282;28;20582;-65
2022/04/27 00:05:25;;;;;;;6.23;2.37;;;;;;;19.26;58.01;100680.63;5084895;28;20918;-65
2022/04/27 00:07:50;;;;;;;7.23;2.30;;;;;;;19.26;57.78;100677.78;5071695;28;20464;-65
2022/04/27 00:10:18;;;;;;;4.10;2.10;;;;;;;19.26;57.90;100685.53;5088292;28;20181;-65
2022/04/27 00:12:44;;;;;;;6.50;2.10;;;;;;;19.26;57.69;100688.41;5070625;28;20792;-65
2022/04/27 00:15:10;;;;;;;3.80;2.13;;;;;;;19.25;58.11;100692.44;5070401;28;20430;-65
2022/04/27 00:17:35;;;;;;;4.83;2.47;;;;;;;19.27;57.69;100687.19;5064535;28;20174;-65
2022/04/27 00:20:01;;;;;;;5.07;2.20;;;;;;;19.26;57.89;100689.22;5090716;28;20648;-65
2022/04/27 00:22:26;;;;;;;3.90;2.10;;;;;;;19.25;57.81;100693.28;5090529;28;20174;-65
2022/04/27 00:24:52;;;;;;;6.33;2.10;;;;;;;19.23;57.95;100690.00;5091112;28;20174;-65
2022/04/27 00:27:17;;;;;;;5.23;2.43;;;;;;;19.23;57.99;100701.44;5090187;28;20232;-65
2022/04/27 00:29:43;;;;;;;4.00;2.30;;;;;;;19.22;57.92;100688.31;5090094;28;20186;-65
2022/04/27 00:32:08;;;;;;;6.20;2.17;;;;;;;19.21;57.80;100689.47;5089748;28;20174;-65
2022/04/27 00:34:34;;;;;;;3.10;2.10;;;;;;;19.22;57.84;100682.59;5072695;28;20214;-65
2022/04/27 00:36:59;;;;;;;7.27;2.20;;;;;;;19.21;57.84;100689.47;5056202;28;20190;-65
2022/04/27 00:39:24;;;;;;;4.67;1.87;;;;;;;19.23;57.91;100694.88;5070603;28;20539;-65
2022/04/27 00:41:59;;;;;;;4.80;1.90;;;;;;;19.22;57.92;100694.03;5070313;28;20654;-65
2022/04/27 00:44:28;;;;;;;4.77;2.23;;;;;;;19.23;57.85;100689.16;5069995;28;20182;-65
2022/04/27 00:46:53;;;;;;;4.03;2.07;;;;;;;19.21;57.95;100689.47;5088381;28;20448;-65
2022/04/27 00:49:19;;;;;;;3.83;1.90;;;;;;;19.21;57.84;100694.41;5090541;28;20503;-65
2022/04/27 00:51:45;;;;;;;4.73;2.23;;;;;;;19.20;57.80;100690.69;5090529;28;20220;-65
2022/04/27 00:54:10;;;;;;;4.30;2.37;;;;;;;19.21;57.95;100686.63;5090319;28;20224;-65
2022/04/27 00:56:37;;;;;;;3.30;2.17;;;;;;;19.20;57.89;100679.25;5071054;28;20190;-65
2022/04/27 00:59:02;;;;;;;4.00;2.20;;;;;;;19.23;57.87;100690.00;5090367;28;20265;-65
2022/04/27 01:01:28;;;;;;;4.93;2.00;;;;;;;19.20;57.92;100690.69;5072147;28;20529;-65
2022/04/27 01:03:53;;;;;;;4.43;2.37;;;;;;;19.18;57.98;100698.84;5090390;28;20166;-65
2022/04/27 01:06:21;;;;;;;5.47;2.23;;;;;;;19.17;57.93;100702.88;5090622;28;20195;-65
2022/04/27 01:08:46;;;;;;;3.00;1.77;;;;;;;19.21;57.97;100700.94;5072002;28;20598;-65
2022/04/27 01:11:12;;;;;;;3.10;1.53;;;;;;;19.22;57.95;100702.63;5090271;28;20404;-65
2022/04/27 01:13:38;;;;;;;3.37;1.77;;;;;;;19.21;57.79;100703.00;5091340;28;20617;-66
2022/04/27 01:16:05;;;;;;;3.93;1.90;;;;;;;19.19;58.04;100709.09;5094348;28;20255;-65
2022/04/27 01:18:30;;;;;;;4.40;2.07;;;;;;;19.20;57.97;100712.75;5093999;28;20434;-65
2022/04/27 01:20:56;;;;;;;5.60;1.90;;;;;;;19.20;58.05;100719.31;5071143;28;20465;-65
2022/04/27 01:23:22;;;;;;;4.27;1.93;;;;;;;19.17;57.97;100708.63;5058040;28;20190;-65
2022/04/27 01:25:54;;;;;;;4.07;1.77;;;;;;;19.20;57.80;100709.91;5072437;28;20170;-65
2022/04/27 01:28:30;;;;;;;5.20;1.83;;;;;;;19.18;57.78;100716.00;5055744;28;20736;-65
2022/04/27 01:31:02;;;;;;;9.73;2.27;;;;;;;19.18;57.82;100716.00;5075809;28;20494;-65
2022/04/27 01:33:29;;;;;;;3.50;2.00;;;;;;;19.18;57.97;100721.75;5055972;28;20425;-65
2022/04/27 01:35:55;;;;;;;4.67;2.70;;;;;;;19.16;57.93;100718.41;5062954;28;20949;-65
2022/04/27 01:38:20;;;;;;;3.40;2.20;;;;;;;19.18;57.96;100713.16;5075459;28;20412;-65
2022/04/27 01:40:46;;;;;;;3.90;2.10;;;;;;;19.18;57.92;100716.00;5093622;28;20194;-65
2022/04/27 01:43:15;;;;;;;3.83;2.07;;;;;;;19.16;58.05;100718.41;5093659;28;20185;-65
2022/04/27 01:45:44;;;;;;;3.80;2.10;;;;;;;19.16;57.95;100715.53;5093081;28;21002;-65
2022/04/27 01:48:10;;;;;;;3.83;1.90;;;;;;;19.16;58.22;100711.88;5075361;28;20514;-65
2022/04/27 01:50:36;;;;;;;3.90;1.80;;;;;;;19.19;57.98;100711.94;5075386;28;20409;-65
2022/04/27 01:55:46;;;;;;;3.20;1.97;;;;;;;19.15;58.16;100705.31;5093589;28;20598;-65
2022/04/27 01:58:11;;;;;;;3.60;1.93;;;;;;;19.16;57.97;100706.97;5091736;28;20413;-65
2022/04/27 02:00:38;;;;;;;3.97;2.20;;;;;;;19.15;58.06;100710.19;5093321;28;20202;-65
2022/04/27 02:03:03;;;;;;;4.77;1.97;;;;;;;19.15;58.05;100713.06;5091314;28;20949;-65
2022/04/27 02:05:29;;;;;;;3.50;1.97;;;;;;;19.14;58.10;100714.25;5078631;28;20456;-65
2022/04/27 02:07:54;;;;;;;5.30;2.03;;;;;;;19.12;57.80;100717.50;5092989;28;20307;-65
2022/04/27 02:10:19;;;;;;;4.20;1.93;;;;;;;19.14;57.91;100720.81;5081896;28;20175;-65
2022/04/27 02:12:45;;;;;;;3.30;2.00;;;;;;;19.14;57.86;100715.09;5074019;28;20186;-65
2022/04/27 02:15:10;;;;;;;3.47;1.60;;;;;;;19.17;57.93;100722.13;5092955;28;20171;-66
2022/04/27 02:17:36;;;;;;;2.60;1.70;;;;;;;19.17;57.92;100714.34;5087929;28;20570;-65
2022/04/27 02:20:02;;;;;;;3.23;1.73;;;;;;;19.16;57.83;100712.69;5072218;28;20171;-65
2022/04/27 02:22:27;;;;;;;5.60;2.03;;;;;;;19.15;58.05;100708.16;5072554;28;20203;-65
2022/04/27 02:24:53;;;;;;;3.53;1.63;;;;;;;19.14;58.35;100715.09;5072278;28;20179;-65
2022/04/27 02:27:20;;;;;;;7.73;2.07;;;;;;;19.17;57.88;100704.94;5072378;28;20172;-65
2022/04/27 02:29:45;;;;;;;4.57;1.73;;;;;;;19.15;57.77;100704.47;5072416;28;20627;-65
2022/04/27 02:32:11;;;;;;;2.80;1.63;;;;;;;19.13;58.13;100704.88;5071036;28;20416;-65
2022/04/27 02:34:36;;;;;;;3.50;1.80;;;;;;;19.15;57.86;100699.59;5087390;28;20699;-65
2022/04/27 02:37:03;;;;;;;3.23;2.00;;;;;;;19.12;57.99;100700.31;5092202;28;20178;-65
2022/04/27 02:39:29;;;;;;;2.83;1.47;;;;;;;19.13;57.92;100709.75;5092382;28;20170;-65
2022/04/27 02:41:54;;;;;;;4.60;1.80;;;;;;;19.12;57.85;100710.97;5092425;28;20456;-65
2022/04/27 02:44:20;;;;;;;4.17;1.57;;;;;;;19.14;57.86;100717.13;5092363;28;20664;-65
2022/04/27 02:46:45;;;;;;;3.60;1.83;;;;;;;19.15;58.06;100719.63;5091920;28;20182;-65
2022/04/27 02:51:55;;;;;;;3.03;1.50;;;;;;;19.12;58.12;100719.53;5092268;28;20182;-65
2022/04/27 02:54:23;;;;;;;3.00;1.80;;;;;;;19.14;58.10;100720.00;5092442;28;20432;-65
2022/04/27 02:56:49;;;;;;;2.93;1.90;;;;;;;19.13;58.00;100719.19;5092199;28;20202;-64
2022/04/27 02:59:14;;;;;;;2.50;1.70;;;;;;;19.15;57.76;100728.19;5073711;28;20793;-64
2022/04/27 03:01:43;;;;;;;5.60;2.00;;;;;;;19.14;57.70;100729.41;5072911;28;20684;-64
2022/04/27 03:04:08;;;;;;;3.20;1.80;;;;;;;19.13;57.84;100729.78;5072495;28;20179;-64
2022/04/27 03:06:34;;;;;;;2.90;1.57;;;;;;;19.12;57.83;100722.41;5089387;28;20515;-66
2022/04/27 03:09:00;;;;;;;4.37;1.60;;;;;;;19.12;57.97;100733.84;5090437;28;20282;-65
2022/04/27 03:11:25;;;;;;;2.70;1.57;;;;;;;19.14;58.11;100728.56;5091895;28;20216;-65
2022/04/27 03:13:51;;;;;;;2.50;1.67;;;;;;;19.15;57.96;100733.94;5091901;28;20175;-65
2022/04/27 03:16:16;;;;;;;3.83;1.40;;;;;;;19.15;57.94;100738.81;5091456;28;20698;-65
2022/04/27 03:18:42;;;;;;;3.73;2.00;;;;;;;19.15;58.00;100736.78;5073638;28;20224;-65
2022/04/27 03:21:08;;;;;;;2.97;1.60;;;;;;;19.12;57.87;100728.94;5073579;28;20218;-65
2022/04/27 03:23:34;;;;;;;3.13;1.80;;;;;;;19.12;57.92;100728.13;5090122;28;20428;-65
2022/04/27 03:25:59;;;;;;;2.83;1.67;;;;;;;19.10;58.05;100727.66;5071660;28;20179;-65
2022/04/27 03:28:24;;;;;;;3.23;1.70;;;;;;;19.10;57.90;100731.38;5071442;28;20529;-65
2022/04/27 03:30:50;;;;;;;2.93;1.60;;;;;;;19.11;58.26;100733.00;5073434;28;20175;-65
2022/04/27 03:33:16;;;;;;;4.20;1.80;;;;;;;19.12;57.95;100742.44;5071490;28;20175;-65
2022/04/27 03:35:41;;;;;;;3.57;2.10;;;;;;;19.09;57.86;100738.28;5058148;28;20188;-65
2022/04/27 03:38:08;;;;;;;3.10;2.00;;;;;;;19.11;57.64;100740.78;5091248;28;20413;-65
2022/04/27 03:40:34;;;;;;;4.20;1.77;;;;;;;19.11;57.83;100747.31;5067079;28;20693;-65
2022/04/27 03:42:59;;;;;;;5.93;1.73;;;;;;;19.10;57.97;100741.97;5071208;28;20409;-65
2022/04/27 03:45:25;;;;;;;3.40;1.73;;;;;;;19.11;57.83;100750.19;5053091;28;20171;-65
2022/04/27 03:47:50;;;;;;;4.73;2.00;;;;;;;19.11;57.83;100750.19;5052889;28;20924;-65
2022/04/27 03:50:16;;;;;;;3.50;2.00;;;;;;;19.09;58.11;100749.75;5070887;28;20183;-65
2022/04/27 03:52:42;;;;;;;4.03;2.10;;;;;;;19.09;57.96;100749.75;5089023;28;20174;-65
2022/04/27 03:55:08;;;;;;;2.40;1.40;;;;;;;19.09;57.87;100746.88;5090890;28;20208;-65
2022/04/27 03:57:33;;;;;;;6.50;1.77;;;;;;;19.09;58.00;100749.75;5090222;28;20915;-65
2022/04/27 03:59:58;;;;;;;3.63;1.90;;;;;;;19.08;58.20;100755.84;5089777;28;20175;-65
2022/04/27 04:02:24;;;;;;;3.70;1.60;;;;;;;19.09;57.92;100758.31;5071750;28;20210;-65
2022/04/27 04:04:50;;;;;;;3.43;1.50;;;;;;;19.08;58.01;100750.94;5052874;28;20228;-65
2022/04/27 04:07:15;;;;;;;3.07;2.03;;;;;;;19.11;57.86;100750.19;5088619;28;20230;-65
2022/04/27 04:09:40;;;;;;;3.10;1.77;;;;;;;19.09;58.18;100758.31;5073076;28;20198;-65
2022/04/27 04:12:07;;;;;;;2.50;1.43;;;;;;;19.08;57.91;100758.69;5087880;28;20174;-66
2022/04/27 04:14:32;;;;;;;2.30;1.40;;;;;;;19.07;57.84;100760.72;5072829;28;20178;-65
2022/04/27 04:16:58;;;;;;;2.77;1.40;;;;;;;19.07;57.99;100772.16;5090593;28;20421;-65
2022/04/27 04:19:23;;;;;;;3.90;1.60;;;;;;;19.09;57.74;100774.66;5091040;28;20174;-65
2022/04/27 04:21:49;;;;;;;2.90;1.43;;;;;;;19.09;58.02;100775.50;5090634;28;20194;-65
2022/04/27 04:24:14;;;;;;;3.30;1.63;;;;;;;19.07;57.88;100779.94;5090872;28;20178;-65
2022/04/27 04:29:24;;;;;;;2.87;1.47;;;;;;;19.07;58.15;100779.94;5090433;28;20192;-65
2022/04/27 04:31:49;;;;;;;3.47;1.80;;;;;;;19.06;57.99;100781.16;5090598;28;20828;-65
2022/04/27 04:34:15;;;;;;;3.73;1.60;;;;;;;19.07;58.12;100792.19;5090841;28;20197;-65
2022/04/27 04:36:40;;;;;;;2.33;1.23;;;;;;;19.07;57.92;100795.06;5059102;28;20187;-65
2022/04/27 04:39:05;;;;;;;2.37;1.50;;;;;;;19.05;57.64;100794.63;5070658;28;20274;-65
2022/04/27 04:41:31;;;;;;;2.80;1.80;;;;;;;19.07;57.96;100797.91;5070159;28;20780;-65
2022/04/27 04:43:57;;;;;;;3.33;1.63;;;;;;;19.04;57.74;100798.69;5069260;28;20187;-65
2022/04/27 04:46:22;;;;;;;3.60;1.60;;;;;;;19.03;58.18;100799.88;5070092;28;20662;-65
2022/04/27 04:48:48;;;;;;;3.00;1.40;;;;;;;19.06;57.97;100804.03;5072446;28;20167;-65
2022/04/27 04:51:13;;;;;;;2.27;1.27;;;;;;;19.04;58.25;100800.69;5083453;28;20247;-65
2022/04/27 04:53:38;;;;;;;2.30;1.20;;;;;;;19.07;58.02;100809.38;5094589;28;20166;-65
2022/04/27 04:56:04;;;;;;;3.53;1.70;;;;;;;19.06;57.81;100806.91;5094488;28;20200;-66
2022/04/27 04:58:29;;;;;;;2.40;1.37;;;;;;;19.04;57.85;100807.25;5075865;28;20270;-65
2022/04/27 05:00:55;;;;;;;3.00;1.40;;;;;;;19.05;57.98;100803.19;5093654;28;20198;-65
2022/04/27 05:03:20;;;;;;;2.50;1.40;;;;;;;19.06;58.18;100804.84;5094412;28;20175;-65
2022/04/27 05:05:46;;;;;;;3.93;1.50;;;;;;;19.05;57.95;100803.19;5093889;28;20182;-65
2022/04/27 05:08:11;;;;;;;3.07;1.70;;;;;;;19.08;58.02;100804.47;5062708;28;20292;-65
2022/04/27 05:10:37;;;;;;;3.60;1.50;;;;;;;19.25;57.83;100806.97;5069939;28;20641;-64
2022/04/27 05:13:02;;;;;;;6.90;3.00;;;;;;;19.32;57.74;100813.69;5065416;28;20179;-65
2022/04/27 05:15:28;;;;;;;8.10;4.60;;;;;;;19.29;57.84;100811.59;5058936;28;20205;-65
2022/04/27 05:17:53;;;;;;;7.20;5.67;;;;;;;19.47;57.93;100820.56;5072248;28;20198;-65
2022/04/27 05:20:18;;;;;;;8.97;5.57;;;;;;;19.57;56.54;100815.06;5070446;28;20179;-64
2022/04/27 05:22:44;;;;;;;14.90;5.70;;;;;;;19.52;57.01;100821.09;5054360;28;20194;-64
2022/04/27 05:25:10;;;;;;;13.57;5.50;;;;;;;19.56;58.12;100824.88;5062635;28;20184;-64
2022/04/27 05:27:36;;;;;;;9.27;5.47;;;;;;;19.57;57.80;100825.72;5065895;28;20236;-64
2022/04/27 05:32:46;;;;;;;9.50;5.40;;;;;;;19.63;58.19;100827.06;5071666;28;20183;-64
2022/04/27 05:35:12;;;;;;;9.47;5.20;;;;;;;19.76;58.16;100829.41;5071415;28;20460;-65
2022/04/27 05:37:38;;;;;;;10.50;6.03;;;;;;;19.70;58.69;100833.78;5072006;28;20189;-65
2022/04/27 05:40:04;;;;;;;8.50;4.17;;;;;;;19.70;58.69;100838.66;5066553;28;20691;-65
2022/04/27 05:42:30;;;;;;;10.00;4.83;;;;;;;19.73;58.68;100835.91;5063663;28;20195;-65
2022/04/27 05:44:55;;;;;;;9.87;4.73;;;;;;;19.73;57.74;100844.50;5060651;28;20441;-64
2022/04/27 05:47:23;;;;;;;9.63;4.30;;;;;;;19.85;58.18;100844.34;5051826;28;20664;-64
2022/04/27 05:49:52;;;;;;;8.80;4.87;;;;;;;19.90;58.37;100848.94;5050915;28;20653;-64
2022/04/27 05:52:18;;;;;;;9.50;4.77;;;;;;;19.89;59.76;100850.16;5051628;28;20410;-64
2022/04/27 05:54:44;;;;;;;6.17;4.00;;;;;;;19.92;58.72;100853.09;5034490;28;20459;-64
2022/04/27 05:57:09;;;;;;;8.13;4.13;;;;;;;19.97;58.76;100851.97;5050117;28;20429;-64
2022/04/27 05:59:35;;;;;;;10.17;3.87;;;;;;;19.94;59.44;100861.31;5070378;28;20179;-64
2022/04/27 06:02:00;;;;;;;8.20;3.60;;;;;;;19.87;58.05;100861.97;5068675;28;20206;-64
2022/04/27 06:04:26;;;;;;;7.50;3.67;;;;;;;19.79;57.55;100868.78;5069720;28;20205;-64
2022/04/27 06:06:53;;;;;;;11.53;3.30;;;;;;;19.74;56.84;100863.34;5052951;28;20198;-64
2022/04/27 06:09:18;;;;;;;8.20;3.40;;;;;;;19.74;56.77;100865.38;5085988;28;20432;-64
2022/04/27 06:11:43;;;;;;;6.93;3.83;;;;;;;19.72;56.67;100862.06;5065067;28;20432;-64
2022/04/27 06:14:09;;;;;;;7.80;3.30;;;;;;;19.62;56.33;100874.09;5085630;28;20193;-65
2022/04/27 06:16:35;;;;;;;5.77;3.40;;;;;;;19.54;56.29;100878.00;5073274;28;20175;-64
2022/04/27 06:19:01;;;;;;;7.67;3.43;;;;;;;19.55;56.00;100880.50;5085542;28;20178;-64
2022/04/27 06:21:31;;;;;;;5.27;3.17;;;;;;;19.51;56.05;100873.84;5114006;28;20205;-64
2022/04/27 06:23:56;;;;;;;8.47;3.20;;;;;;;19.49;55.47;100873.41;5096448;28;20423;-64
2022/04/27 06:26:22;;;;;;;8.20;3.57;;;;;;;19.45;55.70;100878.22;5091907;28;20429;-64
2022/04/27 06:28:47;;;;;;;10.97;3.37;;;;;;;19.43;56.53;100872.03;5090385;28;20187;-64
2022/04/27 06:31:13;;;;;;;10.53;3.10;;;;;;;19.44;56.74;100873.69;5092171;28;20211;-64
2022/04/27 06:33:38;;;;;;;8.47;3.87;;;;;;;19.47;56.63;100887.25;5092375;28;20170;-64
2022/04/27 06:36:04;;;;;;;5.30;2.63;;;;;;;19.47;56.74;100881.53;5092819;28;20175;-64
2022/04/27 06:38:29;;;;;;;6.60;3.10;;;;;;;19.46;56.91;100879.06;5074840;28;20249;-64
2022/04/27 06:40:55;;;;;;;10.37;2.60;;;;;;;19.45;57.02;100883.94;5091858;28;20673;-64
2022/04/27 06:43:20;;;;;;;13.33;3.33;;;;;;;19.44;57.16;100887.16;5092016;28;20226;-64
2022/04/27 06:45:46;;;;;;;8.53;3.20;;;;;;;19.43;57.37;100894.09;5092066;28;20194;-64
2022/04/27 06:48:11;;;;;;;10.30;2.87;;;;;;;19.43;57.12;100883.50;5092742;28;20220;-64
2022/04/27 06:50:37;;;;;;;11.93;3.57;;;;;;;19.44;56.99;100885.16;5093210;28;20166;-64
2022/04/27 06:53:04;;;;;;;9.77;2.47;;;;;;;19.46;57.25;100890.50;5073288;28;20642;-64
2022/04/27 06:55:30;;;;;;;7.60;3.10;;;;;;;19.47;57.24;100889.31;5092310;28;20431;-64
2022/04/27 06:57:55;;;;;;;6.40;2.47;;;;;;;19.48;57.26;100888.94;5074927;28;20773;-65
2022/04/27 07:00:21;;;;;;;6.50;2.77;;;;;;;19.47;57.10;100906.50;5093252;28;20174;-65
2022/04/27 07:02:46;;;;;;;8.03;2.67;;;;;;;19.48;57.73;100903.25;5091175;28;20202;-64
2022/04/27 07:05:17;;;;;;;6.90;2.67;;;;;;;19.48;57.23;100896.69;5092175;28;20182;-64
2022/04/27 07:07:42;;;;;;;5.70;2.80;;;;;;;19.46;57.43;100897.06;5091584;28;20221;-64
2022/04/27 07:10:08;;;;;;;4.80;2.33;;;;;;;19.45;57.46;100901.13;5092964;28;20424;-64
2022/04/27 07:12:33;;;;;;;7.40;3.10;;;;;;;19.45;57.57;100898.25;5091130;28;20244;-64
2022/04/27 07:14:59;;;;;;;4.90;2.50;;;;;;;19.43;57.57;100906.41;5092716;28;20178;-65
2022/04/27 07:17:24;;;;;;;2.90;2.20;;;;;;;19.47;57.62;100909.34;5085542;28;20175;-64
2022/04/27 07:19:50;;;;;;;5.03;2.23;;;;;;;19.44;57.81;100908.06;5091681;28;20170;-64
2022/04/27 07:22:15;;;;;;;11.60;2.60;;;;;;;19.45;57.61;100912.56;5091619;28;20557;-64
2022/04/27 07:24:41;;;;;;;3.90;1.97;;;;;;;19.44;57.61;100908.06;5091942;28;20178;-65
2022/04/27 07:27:06;;;;;;;5.83;2.23;;;;;;;19.42;57.81;100899.00;5092447;28;20565;-65
2022/04/27 07:29:32;;;;;;;4.80;2.10;;;;;;;19.42;57.72;100910.44;5092732;28;20170;-65
2022/04/27 07:31:59;;;;;;;11.07;2.63;;;;;;;19.45;57.88;100908.88;5091162;28;20174;-64
2022/04/27 07:34:25;;;;;;;6.70;2.20;;;;;;;19.46;57.87;100908.50;5092778;28;20657;-64
2022/04/27 07:36:50;;;;;;;5.30;2.10;;;;;;;19.42;57.96;100913.31;5092264;28;20505;-64
2022/04/27 07:39:16;;;;;;;3.90;2.20;;;;;;;19.42;57.75;100899.00;5092481;28;20177;-64
2022/04/27 07:41:45;;;;;;;3.03;2.00;;;;;;;19.43;57.80;100912.13;5091060;28;20201;-65
2022/04/27 07:44:10;;;;;;;6.47;2.17;;;;;;;19.45;57.88;100906.84;5090827;28;20259;-64
2022/04/27 07:46:36;;;;;;;6.50;2.60;;;;;;;19.44;57.79;100913.78;5083216;28;20445;-64
2022/04/27 07:49:01;;;;;;;3.70;1.97;;;;;;;19.44;57.89;100907.22;5073192;28;20171;-64
2022/04/27 07:51:27;;;;;;;3.80;2.03;;;;;;;19.44;57.86;100910.09;5072004;28;20181;-64
2022/04/27 07:53:52;;;;;;;7.00;2.27;;;;;;;19.43;58.18;100915.00;5071965;28;20183;-64
2022/04/27 07:56:17;;;;;;;4.83;2.20;;;;;;;19.49;57.96;100915.53;5072302;28;20203;-64
2022/04/27 07:58:43;;;;;;;9.67;2.63;;;;;;;19.43;57.78;100915.00;5086473;28;20179;-64
2022/04/27 08:01:08;;;;;;;4.67;2.10;;;;;;;19.44;57.58;100922.38;5090102;28;20210;-64
2022/04/27 08:03:34;;;;;;;2.80;1.90;;;;;;;19.47;57.88;100920.81;5072605;28;20202;-64
2022/04/27 08:06:02;;;;;;;13.80;2.70;;;;;;;19.47;57.85;100917.94;5082042;28;20313;-64
2022/04/27 08:08:28;;;;;;;5.63;2.13;;;;;;;19.45;57.74;100918.31;5090714;28;20226;-64
2022/04/27 08:10:54;;;;;;;3.23;2.07;;;;;;;19.47;57.83;100926.53;5091323;28;20412;-64
2022/04/27 08:13:20;;;;;;;6.33;2.87;;;;;;;19.46;58.01;100925.69;5090131;28;20203;-65
2022/04/27 08:15:45;;;;;;;3.47;1.90;;;;;;;19.43;57.89;100923.59;5091758;28;20499;-65
2022/04/27 08:18:11;;;;;;;2.97;2.00;;;;;;;19.43;57.82;100925.59;5091556;28;20204;-65
2022/04/27 08:23:22;;;;;;;4.50;1.93;;;;;;;19.41;58.08;100930.88;5096683;28;20263;-65
2022/04/27 08:25:48;;;;;;;4.57;2.13;;;;;;;19.41;58.04;100937.44;5098553;28;20861;-64
2022/04/27 08:28:13;;;;;;;3.10;1.90;;;;;;;19.45;58.44;100931.78;5080548;28;20185;-65
2022/04/27 08:30:42;;;;;;;4.13;2.20;;;;;;;19.44;58.29;100938.72;5098787;28;20166;-65
2022/04/27 08:33:07;;;;;;;4.10;2.13;;;;;;;19.40;58.01;100941.50;5079462;28;20174;-65
2022/04/27 08:35:33;;;;;;;2.73;1.80;;;;;;;19.40;58.13;100935.78;5079677;28;20960;-65
2022/04/27 08:37:59;;;;;;;4.73;2.10;;;;;;;19.41;58.10;100937.44;5078455;28;20265;-65
2022/04/27 08:40:25;;;;;;;4.20;2.03;;;;;;;19.42;57.87;100944.00;5096328;28;20174;-65
2022/04/27 08:42:51;;;;;;;3.80;2.10;;;;;;;19.40;57.97;100941.50;5078373;28;20411;-65
2022/04/27 08:45:17;;;;;;;5.10;1.70;;;;;;;19.39;57.97;100954.16;5096615;28;20174;-65
2022/04/27 08:47:43;;;;;;;4.60;2.03;;;;;;;19.38;58.00;100955.38;5077350;28;20570;-64
2022/04/27 08:50:13;;;;;;;4.20;1.80;;;;;;;19.37;58.13;100952.88;5095688;28;20621;-64
2022/04/27 08:52:40;;;;;;;3.53;2.17;;;;;;;19.39;58.03;100956.19;5080004;28;20412;-64
2022/04/27 08:55:06;;;;;;;3.07;1.80;;;;;;;19.37;57.96;100947.97;5098125;28;20481;-64
2022/04/27 08:57:31;;;;;;;3.93;1.80;;;;;;;19.35;58.18;100952.38;5098247;28;20423;-64
2022/04/27 08:59:57;;;;;;;3.53;2.20;;;;;;;19.35;58.18;100955.25;5097711;28;20629;-64
2022/04/27 09:02:26;;;;;;;2.73;1.73;;;;;;;19.33;58.28;100958.50;5098091;28;20594;-64
2022/04/27 09:05:07;;;;;;;5.17;1.93;;;;;;;19.33;58.24;100957.66;5097562;28;20497;-64
2022/04/27 09:07:56;;;;;;;4.13;2.17;;;;;;;19.34;58.08;100965.91;5075484;28;21036;-64
2022/04/27 09:10:23;;;;;;;5.00;2.30;;;;;;;19.35;58.32;100958.13;5076355;28;20495;-64
2022/04/27 09:12:50;;;;;;;4.90;2.40;;;;;;;19.33;58.30;100949.06;5078871;28;20771;-64
2022/04/27 09:15:17;;;;;;;2.80;1.57;;;;;;;19.34;58.25;100951.56;5074788;28;20421;-64
2022/04/27 09:23:23;;;;;;;3.37;2.10;;;;;;;19.35;58.21;100950.38;5074875;28;20483;-64
2022/04/27 09:26:00;;;;;;;3.20;1.63;;;;;;;19.34;58.23;100948.72;5074931;28;20467;-64
2022/04/27 09:28:27;;;;;;;3.27;2.13;;;;;;;19.35;58.55;100960.97;5057103;28;20463;-64
2022/04/27 09:30:53;;;;;;;5.67;1.80;;;;;;;19.33;58.25;100949.94;5058636;28;20904;-64
2022/04/27 09:33:34;;;;;;;4.93;2.10;;;;;;;19.31;58.33;100957.22;5075904;28;20431;-64
2022/04/27 09:36:00;;;;;;;3.93;2.10;;;;;;;19.29;58.36;100951.88;5081093;28;20181;-64
2022/04/27 09:38:26;;;;;;;3.30;2.07;;;;;;;19.27;58.37;100954.25;5086142;28;20842;-64
2022/04/27 09:40:54;;;;;;;3.93;2.10;;;;;;;19.27;58.45;100959.16;5074212;28;20226;-64
2022/04/27 09:43:45;;;;;;;3.20;2.20;;;;;;;19.30;58.61;100961.25;5073442;28;20417;-64
2022/04/27 09:46:24;;;;;;;4.20;2.00;;;;;;;19.30;58.42;100958.41;5058432;28;20433;-64
2022/04/27 09:49:02;;;;;;;3.87;1.90;;;;;;;19.29;58.32;100951.03;5056776;28;20842;-65
2022/04/27 09:51:27;;;;;;;3.73;1.90;;;;;;;19.28;58.31;100953.06;5082039;28;20765;-64
2022/04/27 09:53:53;;;;;;;5.70;1.70;;;;;;;19.28;58.24;100949.38;5076234;28;20416;-64
2022/04/27 09:56:19;;;;;;;2.77;1.63;;;;;;;19.28;58.33;100955.94;5059544;28;20189;-64
2022/04/27 09:58:45;;;;;;;3.20;1.70;;;;;;;19.28;58.33;100958.78;5076186;28;20179;-63
2022/04/27 10:01:14;;;;;;;3.23;1.70;;;;;;;19.28;58.38;100958.78;5092954;28;20883;-64
2022/04/27 10:03:40;;;;;;;4.00;1.93;;;;;;;19.28;58.53;100958.78;5092375;28;20416;-64
2022/04/27 10:06:06;;;;;;;3.10;1.80;;;;;;;19.27;58.54;100957.09;5091686;28;20431;-64
2022/04/27 10:08:34;;;;;;;2.70;1.53;;;;;;;19.26;58.82;100958.31;5090686;28;20241;-64
2022/04/27 10:11:00;;;;;;;2.27;1.57;;;;;;;19.25;58.90;100955.81;5072656;28;20418;-64
2022/04/27 10:13:25;;;;;;;3.30;1.70;;;;;;;19.24;58.60;100952.13;5070401;28;20428;-64
2022/04/27 10:15:51;;;;;;;2.60;1.40;;;;;;;19.26;58.75;100948.91;5070923;28;20179;-64
2022/04/27 10:18:17;;;;;;;3.70;1.90;;;;;;;19.25;58.64;100950.94;5072242;28;20582;-64
2022/04/27 10:20:43;;;;;;;4.33;1.70;;;;;;;19.24;58.04;100943.56;5059064;28;20213;-64
2022/04/27 10:23:22;;;;;;;2.77;1.70;;;;;;;19.29;58.41;100948.16;5093934;28;20841;-64
2022/04/27 10:26:09;;;;;;;2.60;1.77;;;;;;;19.26;58.60;100946.06;5093462;28;20654;-64
2022/04/27 10:28:48;;;;;;;3.63;1.67;;;;;;;19.28;58.51;100944.47;5093716;28;20415;-64
2022/04/27 10:31:24;;;;;;;2.60;1.80;;;;;;;19.27;58.45;100936.25;5091999;28;20749;-64
2022/04/27 10:33:50;;;;;;;5.23;1.60;;;;;;;19.26;58.43;100941.13;5072456;28;20420;-64
2022/04/27 10:36:28;;;;;;;4.50;1.90;;;;;;;19.24;58.55;100936.97;5092013;28;20428;-64
2022/04/27 10:39:46;;;;;;;2.60;1.80;;;;;;;19.25;58.61;100945.22;5092012;28;20418;-64
2022/04/27 10:42:29;;;;;;;3.43;1.60;;;;;;;19.24;58.59;100937.81;5073037;28;20453;-64
2022/04/27 10:44:55;;;;;;;3.43;1.77;;;;;;;19.24;58.67;100943.56;5073322;28;20888;-64
2022/04/27 10:47:21;;;;;;;4.53;1.93;;;;;;;19.24;58.75;100939.84;5072935;28;20439;-64
2022/04/27 10:49:50;;;;;;;2.53;1.40;;;;;;;19.22;58.80;100940.22;5072968;28;20194;-64
2022/04/27 10:52:16;;;;;;;3.03;1.90;;;;;;;19.25;58.52;100936.63;5055510;28;20408;-64
2022/04/27 10:54:42;;;;;;;2.07;1.37;;;;;;;19.26;58.75;100937.47;5038417;28;20429;-64
2022/04/27 10:57:16;;;;;;;2.90;1.70;;;;;;;19.25;58.56;100939.47;5072801;28;20174;-64
2022/04/27 10:59:45;;;;;;;2.40;1.30;;;;;;;19.25;58.70;100933.75;5072906;28;20197;-64
2022/04/27 11:02:39;;;;;;;3.57;1.90;;;;;;;19.26;58.52;100934.59;5054260;28;20451;-64
2022/04/27 11:05:18;;;;;;;2.77;1.30;;;;;;;19.26;58.59;100940.31;5076002;28;20440;-64
2022/04/27 11:08:00;;;;;;;2.87;1.60;;;;;;;19.25;58.56;100939.47;5072567;28;20468;-64
2022/04/27 11:10:26;;;;;;;3.20;1.60;;;;;;;19.24;58.62;100943.56;5072322;28;20416;-64
2022/04/27 11:12:52;;;;;;;3.50;1.90;;;;;;;19.27;58.41;100948.53;5072438;28;20417;-64
2022/04/27 11:15:22;;;;;;;4.20;1.77;;;;;;;19.34;58.47;100947.88;5072477;28;20627;-64
2022/04/27 11:18:01;;;;;;;3.87;1.60;;;;;;;19.34;58.12;100933.56;5086515;28;20443;-64
2022/04/27 11:20:36;;;;;;;3.50;1.80;;;;;;;19.29;58.34;100940.41;5085614;28;20405;-64
2022/04/27 11:23:06;;;;;;;4.30;1.70;;;;;;;19.29;58.38;100943.28;5072311;28;20417;-64
2022/04/27 11:25:33;;;;;;;5.40;1.90;;;;;;;19.26;58.47;100940.31;5072229;28;20467;-64
2022/04/27 11:27:59;;;;;;;4.13;1.90;;;;;;;19.26;58.78;100943.19;5054322;28;20409;-64
2022/04/27 11:30:25;;;;;;;16.13;2.37;;;;;;;19.24;58.53;100936.97;5072317;28;20406;-64
2022/04/27 11:32:51;;;;;;;3.70;2.00;;;;;;;19.26;58.71;100929.69;5072101;28;20244;-64
2022/04/27 11:35:16;;;;;;;3.33;1.90;;;;;;;19.26;58.43;100938.28;5072799;28;20181;-64
2022/04/27 11:37:43;;;;;;;10.27;1.90;;;;;;;19.26;58.66;100934.59;5077928;28;20198;-64
2022/04/27 11:40:18;;;;;;;4.73;1.90;;;;;;;19.27;58.58;100936.25;5055243;28;20421;-64
2022/04/27 11:42:44;;;;;;;3.17;1.60;;;;;;;19.25;58.52;100933.75;5053021;28;20814;-64